Time;durP1;ratioP1;P1;durP2;ratioP2;P2;SDS_P1;SDS_P2;PMS_P1;PMS_P2;Temp;Humidity;BMP_temperature;BMP_pressure;BME280_temperature;BME280_humidity;BME280_pressure;Samples;Min_cycle;Max_cycle;Signal;HPM_P1;HPM_P2
2023/10/23 00:04:18;;;;;;;5.25;1.08;;;;;;;11.04;61.41;97590.81;10319335;28;20055;-71
2023/10/23 00:09:39;;;;;;;5.97;1.10;;;;;;;11.02;61.68;97590.69;10332829;28;20046;-70
2023/10/23 00:15:00;;;;;;;4.30;0.93;;;;;;;11.03;62.03;97595.69;10333824;28;20133;-69
2023/10/23 00:20:21;;;;;;;6.60;0.85;;;;;;;11.05;62.07;97592.28;10332588;28;20480;-70
2023/10/23 00:25:41;;;;;;;4.00;1.17;;;;;;;11.03;62.41;97598.47;10333419;28;20528;-70
2023/10/23 00:31:02;;;;;;;7.50;1.63;;;;;;;11.00;62.86;97596.88;10318884;28;20051;-71
2023/10/23 00:36:23;;;;;;;4.93;1.60;;;;;;;10.92;62.49;97606.81;10318542;28;20042;-70
2023/10/23 00:41:45;;;;;;;4.35;1.55;;;;;;;10.84;63.14;97601.44;10332090;28;20484;-70
2023/10/23 00:47:07;;;;;;;6.20;1.77;;;;;;;10.80;63.08;97598.38;10323688;28;20109;-70
2023/10/23 00:52:28;;;;;;;5.05;1.52;;;;;;;10.78;63.07;97601.75;10312873;28;20046;-71
2023/10/23 00:57:48;;;;;;;5.38;2.03;;;;;;;10.75;63.00;97602.25;10326203;28;20057;-70
2023/10/23 01:03:09;;;;;;;5.18;1.35;;;;;;;10.64;63.95;97609.25;10325868;28;20551;-69
2023/10/23 01:08:30;;;;;;;5.53;1.70;;;;;;;10.52;63.39;97611.97;10325853;28;20050;-69
2023/10/23 01:13:52;;;;;;;4.72;1.27;;;;;;;10.36;63.53;97613.69;10325267;28;20465;-71
2023/10/23 01:19:13;;;;;;;4.97;1.90;;;;;;;10.30;63.95;97607.69;10338858;28;20046;-70
2023/10/23 01:24:34;;;;;;;8.55;1.52;;;;;;;10.19;64.54;97613.91;10338709;28;20065;-70
2023/10/23 01:29:55;;;;;;;7.80;1.50;;;;;;;10.11;64.71;97605.00;10338676;28;20050;-71
2023/10/23 01:35:16;;;;;;;5.18;1.80;;;;;;;9.99;64.96;97619.59;10338612;28;20436;-70
2023/10/23 01:40:37;;;;;;;5.05;1.92;;;;;;;9.89;64.68;97604.97;10338195;28;20050;-70
2023/10/23 01:45:59;;;;;;;8.32;2.70;;;;;;;9.85;65.40;97612.34;10338030;28;20046;-70
2023/10/23 01:51:20;;;;;;;7.38;2.35;;;;;;;9.81;65.82;97623.19;10337560;28;20046;-70
2023/10/23 01:56:41;;;;;;;8.43;2.17;;;;;;;9.72;65.85;97619.84;10337029;28;20045;-70
2023/10/23 02:02:02;;;;;;;7.35;1.90;;;;;;;9.70;66.32;97630.13;10323654;28;20050;-70
2023/10/23 02:07:23;;;;;;;4.65;1.70;;;;;;;9.72;66.49;97633.06;10323531;28;20046;-70
2023/10/23 02:12:44;;;;;;;5.55;1.50;;;;;;;9.70;66.30;97625.28;10336961;28;20070;-70
2023/10/23 02:18:05;;;;;;;6.40;1.45;;;;;;;9.68;66.72;97636.31;10336635;28;20046;-70
2023/10/23 02:23:26;;;;;;;4.45;1.67;;;;;;;9.65;66.52;97634.72;10336743;28;20050;-71
2023/10/23 02:28:52;;;;;;;4.32;1.58;;;;;;;9.64;66.72;97643.63;10336342;28;20043;-70
2023/10/23 02:34:13;;;;;;;5.53;1.50;;;;;;;9.53;66.82;97638.69;10336330;28;20397;-70
2023/10/23 02:39:34;;;;;;;3.97;1.50;;;;;;;9.45;66.79;97650.00;10335926;28;20448;-70
2023/10/23 02:44:55;;;;;;;4.82;1.60;;;;;;;9.44;67.17;97656.88;10336244;28;20065;-70
2023/10/23 02:50:16;;;;;;;5.63;1.60;;;;;;;9.39;67.01;97660.72;10341748;28;20061;-72
2023/10/23 02:55:40;;;;;;;4.30;1.67;;;;;;;9.34;67.61;97662.47;10343654;28;20046;-71
2023/10/23 03:01:01;;;;;;;5.43;1.60;;;;;;;9.32;67.27;97665.13;10336135;28;20046;-70
2023/10/23 03:06:22;;;;;;;11.10;1.88;;;;;;;9.34;67.72;97664.53;10334793;28;20057;-70
2023/10/23 03:11:42;;;;;;;5.90;1.52;;;;;;;9.37;67.79;97663.38;10320354;28;20047;-70
2023/10/23 03:17:03;;;;;;;4.80;1.65;;;;;;;9.38;68.10;97668.34;10335445;28;20469;-70
2023/10/23 03:22:24;;;;;;;4.40;1.67;;;;;;;9.37;67.32;97677.31;10321498;28;20105;-70
2023/10/23 03:27:45;;;;;;;7.95;2.08;;;;;;;9.26;68.00;97683.44;10334185;28;20056;-70
2023/10/23 03:33:06;;;;;;;4.45;1.80;;;;;;;9.21;68.35;97682.44;10333745;28;20093;-70
2023/10/23 03:38:26;;;;;;;4.05;1.73;;;;;;;9.15;68.30;97682.72;10333858;28;20077;-70
2023/10/23 03:43:48;;;;;;;4.65;2.17;;;;;;;9.07;68.09;97676.59;10334334;28;20057;-72
2023/10/23 03:49:08;;;;;;;6.07;1.70;;;;;;;8.99;68.33;97673.22;10333363;28;20100;-70
2023/10/23 03:54:29;;;;;;;5.35;1.50;;;;;;;8.92;68.75;97684.50;10334223;28;20535;-70
2023/10/23 03:59:50;;;;;;;4.75;1.60;;;;;;;8.81;68.79;97672.63;10333013;28;20046;-70
2023/10/23 04:05:11;;;;;;;5.18;1.77;;;;;;;8.73;69.07;97669.25;10319014;28;20057;-69
2023/10/23 04:10:31;;;;;;;5.93;1.58;;;;;;;8.61;69.57;97673.94;10332823;28;20053;-69
2023/10/23 04:15:53;;;;;;;4.32;1.55;;;;;;;8.57;69.70;97670.84;10332626;28;20046;-70
2023/10/23 04:21:14;;;;;;;6.65;1.77;;;;;;;8.49;69.81;97673.78;10339507;28;20046;-70
2023/10/23 04:26:35;;;;;;;5.00;1.80;;;;;;;8.43;70.11;97692.78;10347054;28;20034;-70
2023/10/23 04:31:58;;;;;;;7.47;1.92;;;;;;;8.39;70.95;97697.28;10345989;28;20058;-71
2023/10/23 04:37:19;;;;;;;4.93;1.77;;;;;;;8.34;71.05;97704.59;10346518;28;20400;-72
2023/10/23 04:42:40;;;;;;;6.50;1.98;;;;;;;8.27;71.12;97705.44;10345471;28;20104;-72
2023/10/23 04:48:02;;;;;;;4.85;1.40;;;;;;;8.24;70.94;97701.03;10345865;28;20038;-70
2023/10/23 04:53:23;;;;;;;4.85;1.77;;;;;;;8.17;71.36;97701.88;10345693;28;20042;-70
2023/10/23 04:58:44;;;;;;;6.35;2.25;;;;;;;8.16;71.65;97706.72;10345619;28;20076;-70
2023/10/23 05:04:05;;;;;;;6.90;2.42;;;;;;;8.15;71.38;97710.81;10345451;28;20082;-72
2023/10/23 05:09:27;;;;;;;4.78;2.17;;;;;;;8.16;71.76;97715.06;10331824;28;20047;-72
2023/10/23 05:14:48;;;;;;;6.50;2.75;;;;;;;8.14;71.19;97711.41;10331723;28;20038;-72
2023/10/23 05:20:09;;;;;;;8.00;2.85;;;;;;;8.10;72.12;97703.47;10345138;28;20045;-72
2023/10/23 05:25:30;;;;;;;5.90;2.20;;;;;;;8.12;71.87;97703.66;10331441;28;20051;-70
2023/10/23 05:30:51;;;;;;;6.75;1.83;;;;;;;8.12;72.45;97708.47;10344147;28;20093;-72
2023/10/23 05:36:12;;;;;;;6.07;1.98;;;;;;;8.18;72.29;97725.59;10338523;28;20053;-71
2023/10/23 05:41:33;;;;;;;6.43;2.40;;;;;;;8.25;72.62;97719.94;10338274;28;20105;-72
2023/10/23 05:46:54;;;;;;;10.38;2.53;;;;;;;8.38;71.79;97737.56;10324522;28;20042;-72
2023/10/23 05:52:15;;;;;;;4.60;1.95;;;;;;;8.57;72.19;97743.19;10324362;28;20046;-71
2023/10/23 05:57:36;;;;;;;4.72;1.85;;;;;;;10.27;72.22;97751.19;10337684;28;20046;-72
2023/10/23 06:02:57;;;;;;;7.15;2.35;;;;;;;11.63;69.82;97759.41;10337557;28;20388;-72
2023/10/23 06:08:18;;;;;;;5.90;2.67;;;;;;;11.30;67.74;97762.19;10338473;28;20046;-72
2023/10/23 06:13:39;;;;;;;6.88;2.75;;;;;;;11.44;69.35;97763.84;10337915;28;20062;-72
2023/10/23 06:19:00;;;;;;;7.15;2.47;;;;;;;15.10;67.01;97760.88;10337899;28;20042;-70
2023/10/23 06:24:21;;;;;;;7.78;2.28;;;;;;;20.23;62.14;97773.75;10341157;28;20046;-71
2023/10/23 06:29:42;;;;;;;5.65;2.33;;;;;;;22.60;54.41;97766.31;10336438;28;20058;-69
2023/10/23 06:35:04;;;;;;;6.28;2.30;;;;;;;24.57;50.21;97774.63;10335793;28;20049;-70
2023/10/23 06:40:25;;;;;;;6.68;3.00;;;;;;;28.65;42.47;97771.63;10335717;28;20117;-72
2023/10/23 06:45:46;;;;;;;7.53;3.03;;;;;;;31.36;38.33;97769.94;10321641;28;20085;-72
2023/10/23 06:51:16;;;;;;;6.43;2.22;;;;;;;33.43;31.83;97773.34;10323078;28;20563;-71
2023/10/23 06:56:37;;;;;;;6.32;2.05;;;;;;;35.25;26.70;97773.59;10336262;28;20053;-72
2023/10/23 07:01:58;;;;;;;6.50;2.40;;;;;;;36.34;23.01;97774.38;10334812;28;20049;-72
2023/10/23 07:07:19;;;;;;;5.38;2.47;;;;;;;37.74;20.89;97774.22;10334712;28;20050;-72
2023/10/23 07:12:49;;;;;;;5.47;2.35;;;;;;;39.00;18.52;97773.22;10322082;28;20053;-71
2023/10/23 07:18:10;;;;;;;5.45;1.80;;;;;;;39.88;16.55;97773.38;10335067;28;20073;-72
2023/10/23 07:23:31;;;;;;;5.07;2.03;;;;;;;40.53;15.19;97767.13;10320206;28;20053;-71
2023/10/23 07:28:52;;;;;;;4.22;1.88;;;;;;;40.42;14.29;97777.22;10334752;28;20047;-74
2023/10/23 07:34:13;;;;;;;5.90;1.45;;;;;;;40.62;13.17;97776.88;10319848;28;20066;-74
2023/10/23 07:39:34;;;;;;;3.90;1.80;;;;;;;41.13;12.15;97776.41;10306184;28;20046;-74
2023/10/23 07:44:56;;;;;;;4.68;1.60;;;;;;;42.39;12.05;97777.97;10306290;28;20489;-74
2023/10/23 07:50:17;;;;;;;5.55;1.98;;;;;;;43.46;11.40;97786.78;10319459;28;20039;-74
2023/10/23 07:55:38;;;;;;;3.85;1.85;;;;;;;43.67;10.43;97780.97;10334015;28;20515;-74
2023/10/23 08:01:05;;;;;;;4.97;1.50;;;;;;;44.11;10.60;97789.09;10333748;28;20523;-75
2023/10/23 08:06:27;;;;;;;4.13;2.20;;;;;;;44.44;9.69;97795.69;10292155;28;20054;-74
2023/10/23 08:11:48;;;;;;;5.90;1.70;;;;;;;44.68;9.50;97787.44;10291902;28;20162;-75
2023/10/23 08:17:09;;;;;;;5.70;1.63;;;;;;;45.31;9.56;97777.09;10278755;28;20102;-74
2023/10/23 08:22:29;;;;;;;3.58;1.52;;;;;;;44.19;9.01;97785.59;10278801;28;20469;-74
2023/10/23 08:27:50;;;;;;;2.67;1.45;;;;;;;43.53;9.49;97779.69;10292353;28;20046;-74
2023/10/23 08:33:11;;;;;;;5.00;1.50;;;;;;;42.98;10.18;97782.47;10292851;28;20043;-74
2023/10/23 08:38:33;;;;;;;5.38;1.42;;;;;;;44.29;10.13;97777.63;10293011;28;20058;-73
2023/10/23 08:43:55;;;;;;;6.72;1.48;;;;;;;44.47;9.20;97780.00;10291553;28;20066;-74
2023/10/23 08:49:17;;;;;;;2.78;1.17;;;;;;;44.81;9.18;97776.22;10278780;28;20039;-74
2023/10/23 08:54:38;;;;;;;2.75;1.10;;;;;;;43.84;8.92;97780.63;10278231;28;20117;-74
2023/10/23 08:59:59;;;;;;;4.18;1.17;;;;;;;43.11;9.36;97774.97;10278041;28;20105;-74
2023/10/23 09:05:20;;;;;;;3.63;1.30;;;;;;;42.87;9.78;97761.84;10277816;28;20069;-75
2023/10/23 09:11:03;;;;;;;3.42;1.23;;;;;;;43.48;9.78;97766.78;10299870;28;20073;-75
2023/10/23 09:16:23;;;;;;;4.90;1.67;;;;;;;42.92;10.09;97756.41;10272006;28;20585;-75
2023/10/23 09:21:45;;;;;;;4.53;1.17;;;;;;;42.28;10.40;97759.59;10271600;28;20174;-74
2023/10/23 09:27:06;;;;;;;5.20;1.00;;;;;;;42.79;9.85;97753.53;10284999;28;20067;-74
2023/10/23 09:32:27;;;;;;;4.20;1.63;;;;;;;41.28;10.67;97747.03;10284662;28;20066;-75
2023/10/23 09:37:48;;;;;;;4.15;1.25;;;;;;;40.94;11.77;97744.50;10298999;28;20066;-74
2023/10/23 09:43:08;;;;;;;5.40;1.38;;;;;;;41.41;10.64;97739.00;10284366;28;20516;-74
2023/10/23 09:48:30;;;;;;;3.67;1.23;;;;;;;39.93;12.05;97735.88;10298384;28;20071;-74
2023/10/23 09:54:01;;;;;;;4.97;1.40;;;;;;;40.37;12.13;97746.81;10283631;28;20591;-72
2023/10/23 09:59:27;;;;;;;3.63;1.35;;;;;;;40.89;11.56;97746.94;10281363;28;20067;-74
2023/10/23 10:04:52;;;;;;;4.40;1.58;;;;;;;41.46;11.52;97735.00;10291338;28;20125;-74
2023/10/23 10:10:14;;;;;;;4.97;1.95;;;;;;;41.37;11.10;97742.84;10334774;28;20042;-75
2023/10/23 10:15:36;;;;;;;3.22;1.42;;;;;;;40.07;11.83;97725.72;10336518;28;20050;-75
2023/10/23 10:20:58;;;;;;;4.15;1.58;;;;;;;39.10;12.31;97717.28;10321679;28;20117;-74
2023/10/23 10:26:19;;;;;;;5.32;1.70;;;;;;;39.58;12.30;97722.31;10323370;28;20042;-75
2023/10/23 10:31:59;;;;;;;3.00;1.33;;;;;;;40.32;11.30;97702.44;10334219;28;20073;-73
2023/10/23 10:37:29;;;;;;;4.47;1.20;;;;;;;40.11;11.71;97705.03;10336375;28;20495;-74
2023/10/23 10:42:50;;;;;;;4.40;1.00;;;;;;;39.35;11.46;97700.03;10335354;28;20065;-75
2023/10/23 10:48:11;;;;;;;3.30;0.98;;;;;;;39.85;12.13;97687.31;10333030;28;20474;-80
2023/10/23 10:53:31;;;;;;;4.43;0.90;;;;;;;39.32;11.90;97669.53;10281776;28;20078;-77
2023/10/23 10:58:52;;;;;;;3.40;0.73;;;;;;;38.97;12.14;97661.00;10325950;28;20523;-74
2023/10/23 11:04:13;;;;;;;5.30;0.73;;;;;;;38.40;12.02;97660.72;10335005;28;20136;-80
2023/10/23 11:09:34;;;;;;;3.17;0.57;;;;;;;39.22;12.00;97653.22;10307784;28;20045;-81
2023/10/23 11:14:54;;;;;;;2.10;0.60;;;;;;;40.03;11.47;97651.34;10307163;28;20042;-78
2023/10/23 11:20:15;;;;;;;3.15;0.80;;;;;;;40.92;11.09;97656.13;10319460;28;20046;-76
2023/10/23 11:25:36;;;;;;;4.25;0.90;;;;;;;39.81;11.08;97655.41;10319280;28;20443;-78
2023/10/23 11:30:57;;;;;;;3.22;0.60;;;;;;;38.75;11.89;97668.63;10331104;28;20062;-72
2023/10/23 11:36:20;;;;;;;1.75;0.55;;;;;;;38.53;11.23;97662.31;10331727;28;20416;-71
2023/10/23 11:41:41;;;;;;;5.63;1.10;;;;;;;35.35;13.03;97668.09;10319952;28;20046;-71
2023/10/23 11:47:04;;;;;;;2.95;0.50;;;;;;;31.30;16.20;97657.59;10333117;28;20042;-72
2023/10/23 11:52:26;;;;;;;3.90;0.90;;;;;;;29.84;17.94;97654.44;10331887;28;20045;-71
2023/10/23 11:57:51;;;;;;;3.60;1.10;;;;;;;28.37;19.69;97652.59;10330872;28;20049;-69
2023/10/23 12:03:12;;;;;;;3.97;0.90;;;;;;;26.25;22.09;97649.69;10326553;28;20497;-69
2023/10/23 12:08:33;;;;;;;6.20;1.43;;;;;;;25.81;23.05;97638.03;10311586;28;20066;-69
2023/10/23 12:13:54;;;;;;;5.60;0.80;;;;;;;25.02;24.49;97630.28;10311616;28;20058;-68
2023/10/23 12:19:15;;;;;;;3.58;0.60;;;;;;;24.08;26.25;97625.69;10283484;28;20170;-69
2023/10/23 12:24:36;;;;;;;6.43;1.58;;;;;;;23.56;26.44;97626.38;10304813;28;20122;-70
2023/10/23 12:29:58;;;;;;;13.73;1.40;;;;;;;22.70;27.06;97627.09;10279091;28;20090;-69
2023/10/23 12:35:28;;;;;;;3.07;0.67;;;;;;;22.61;27.95;97624.81;10278330;28;20067;-68
2023/10/23 12:40:50;;;;;;;5.10;0.82;;;;;;;22.69;27.76;97630.66;10266957;28;20118;-68
2023/10/23 12:46:11;;;;;;;4.95;0.63;;;;;;;22.11;28.93;97605.38;10286210;28;20114;-69
2023/10/23 12:51:33;;;;;;;8.93;1.02;;;;;;;22.15;29.08;97594.06;10300567;28;20062;-69
2023/10/23 12:56:57;;;;;;;4.63;0.70;;;;;;;22.44;28.92;97601.75;10286187;28;20075;-69
2023/10/23 13:02:17;;;;;;;2.83;0.60;;;;;;;23.13;28.54;97588.72;10287146;28;20047;-68
2023/10/23 13:07:38;;;;;;;4.32;0.98;;;;;;;23.03;27.59;97585.72;10353229;28;20121;-68
2023/10/23 13:12:59;;;;;;;5.38;0.68;;;;;;;22.31;28.51;97582.31;10339007;28;20049;-68
2023/10/23 13:18:20;;;;;;;4.22;0.70;;;;;;;21.25;29.56;97580.78;10312149;28;20436;-68
2023/10/23 13:23:40;;;;;;;2.30;0.55;;;;;;;20.42;30.17;97564.50;10339255;28;20042;-67
2023/10/23 13:29:01;;;;;;;3.72;0.63;;;;;;;20.06;31.41;97564.25;10339885;28;20452;-67
2023/10/23 13:34:22;;;;;;;3.65;0.80;;;;;;;19.97;32.40;97554.81;10338438;28;20074;-68
2023/10/23 13:39:44;;;;;;;8.65;1.02;;;;;;;19.43;33.71;97554.66;10352230;28;20120;-68
2023/10/23 13:45:05;;;;;;;5.20;0.70;;;;;;;19.22;33.96;97558.28;10306262;28;20405;-67
2023/10/23 13:50:26;;;;;;;6.85;0.80;;;;;;;19.16;34.19;97539.72;10292479;28;20524;-68
2023/10/23 13:55:47;;;;;;;5.13;0.80;;;;;;;18.97;34.21;97559.63;10294437;28;20516;-68
2023/10/23 14:01:08;;;;;;;5.45;0.75;;;;;;;18.87;34.85;97560.00;10277333;28;20089;-68
2023/10/23 14:06:28;;;;;;;5.63;0.80;;;;;;;18.78;34.91;97553.38;10323232;28;20485;-67
2023/10/23 14:11:50;;;;;;;3.08;0.57;;;;;;;18.95;35.12;97551.78;10323674;28;20043;-68
2023/10/23 14:17:21;;;;;;;6.35;1.10;;;;;;;18.91;35.24;97554.47;10298815;28;20437;-67
2023/10/23 14:22:42;;;;;;;4.35;0.60;;;;;;;18.97;35.07;97542.66;10323058;28;20069;-67
2023/10/23 14:28:03;;;;;;;4.57;0.60;;;;;;;18.59;35.52;97537.16;10336293;28;20070;-67
2023/10/23 14:33:26;;;;;;;2.70;0.50;;;;;;;18.30;35.37;97519.28;10322587;28;20084;-70
2023/10/23 14:38:47;;;;;;;5.38;1.08;;;;;;;17.97;37.51;97508.97;10336156;28;20062;-70
2023/10/23 14:44:08;;;;;;;6.47;0.98;;;;;;;17.73;37.44;97506.00;10321955;28;20038;-69
2023/10/23 14:49:29;;;;;;;4.43;0.82;;;;;;;17.80;38.34;97497.75;10281804;28;20046;-68
2023/10/23 14:54:54;;;;;;;4.05;1.00;;;;;;;17.48;40.46;97489.56;10295052;28;20131;-69
2023/10/23 15:00:15;;;;;;;7.47;1.25;;;;;;;17.30;42.69;97480.41;10321919;28;20069;-70
2023/10/23 15:05:36;;;;;;;5.82;1.38;;;;;;;16.96;43.73;97489.00;10329547;28;20082;-69
2023/10/23 15:10:57;;;;;;;5.15;1.15;;;;;;;16.68;46.05;97485.06;10320059;28;20491;-69
2023/10/23 15:16:19;;;;;;;4.80;1.10;;;;;;;16.29;46.39;97489.88;10337959;28;20057;-69
2023/10/23 15:21:40;;;;;;;4.80;0.95;;;;;;;15.85;47.50;97497.19;10320946;28;20517;-69
2023/10/23 15:27:02;;;;;;;4.78;1.00;;;;;;;15.58;47.34;97505.81;10332478;28;20042;-69
2023/10/23 15:32:23;;;;;;;7.43;1.60;;;;;;;15.35;48.62;97498.47;10338337;28;20047;-69
2023/10/23 15:37:44;;;;;;;5.85;1.15;;;;;;;15.20;49.37;97483.03;10319585;28;20042;-69
2023/10/23 15:43:05;;;;;;;4.97;1.73;;;;;;;15.09;49.71;97481.13;10318506;28;20455;-70
2023/10/23 15:48:26;;;;;;;6.03;1.35;;;;;;;14.95;51.51;97475.56;10303506;28;20048;-69
2023/10/23 15:53:47;;;;;;;4.93;1.40;;;;;;;14.83;51.20;97472.22;10332899;28;20382;-69
2023/10/23 15:59:08;;;;;;;6.38;1.65;;;;;;;14.68;53.52;97476.44;10331794;28;20050;-69
2023/10/23 16:04:30;;;;;;;10.23;1.50;;;;;;;14.55;52.37;97469.50;10305173;28;20503;-70
2023/10/23 16:09:51;;;;;;;7.88;1.50;;;;;;;14.45;54.87;97463.41;10332891;28;20085;-70
2023/10/23 16:15:25;;;;;;;9.80;1.80;;;;;;;14.34;54.04;97464.25;10318341;28;20053;-68
2023/10/23 16:21:11;;;;;;;5.72;1.80;;;;;;;14.25;53.79;97470.84;10330125;28;20396;-69
2023/10/23 16:26:33;;;;;;;8.85;1.83;;;;;;;14.24;55.21;97469.38;10332410;28;20377;-68
2023/10/23 16:31:54;;;;;;;7.80;1.98;;;;;;;14.22;55.85;97455.25;10319058;28;20042;-68
2023/10/23 16:37:15;;;;;;;6.30;1.48;;;;;;;14.15;55.49;97450.69;10316892;28;20066;-68
2023/10/23 16:42:36;;;;;;;9.07;2.20;;;;;;;14.10;56.45;97451.84;10332290;28;20050;-68
2023/10/23 16:47:57;;;;;;;7.80;2.08;;;;;;;13.97;56.41;97442.09;10303665;28;20049;-68
2023/10/23 16:53:19;;;;;;;8.25;2.20;;;;;;;13.82;56.56;97440.69;10314792;28;20085;-67
2023/10/23 16:58:39;;;;;;;4.57;2.10;;;;;;;13.68;56.55;97434.34;10314374;28;20500;-67
2023/10/23 17:04:00;;;;;;;6.10;2.00;;;;;;;13.62;57.38;97442.47;10334570;28;20082;-76
2023/10/23 17:09:21;;;;;;;8.30;1.77;;;;;;;13.49;58.11;97446.00;10326223;28;20043;-71
2023/10/23 17:14:42;;;;;;;8.00;2.53;;;;;;;13.38;58.81;97437.06;10305005;28;20420;-72
2023/10/23 17:20:03;;;;;;;7.28;1.80;;;;;;;13.33;60.19;97426.28;10332173;28;20050;-71
2023/10/23 17:25:26;;;;;;;8.50;2.20;;;;;;;13.21;60.83;97417.94;10311772;28;20129;-76
2023/10/23 17:30:55;;;;;;;9.95;2.50;;;;;;;13.16;60.55;97422.59;10368016;28;20070;-80
2023/10/23 17:36:18;;;;;;;7.53;2.05;;;;;;;13.10;60.55;97424.34;10916516;23;20125;-79
2023/10/23 17:41:39;;;;;;;9.13;3.00;;;;;;;13.05;60.49;97433.91;10421486;28;20049;-75
2023/10/23 17:47:00;;;;;;;10.88;2.50;;;;;;;12.99;61.10;97425.16;10405704;28;20045;-71
2023/10/23 17:52:21;;;;;;;6.30;2.22;;;;;;;12.96;61.70;97415.94;10392019;28;20045;-72
2023/10/23 17:57:42;;;;;;;8.68;2.20;;;;;;;12.96;60.99;97404.72;10405692;28;20049;-70
2023/10/23 18:03:03;;;;;;;8.00;2.72;;;;;;;12.96;60.89;97398.41;10405151;28;20534;-71
2023/10/23 18:08:24;;;;;;;10.02;2.97;;;;;;;12.98;61.73;97402.03;10405128;28;20041;-71
2023/10/23 18:13:45;;;;;;;10.98;3.22;;;;;;;12.94;61.75;97401.09;10389801;28;20069;-69
2023/10/23 18:19:10;;;;;;;8.52;3.08;;;;;;;12.87;62.32;97392.34;10415143;28;20164;-71
2023/10/23 18:24:36;;;;;;;10.35;3.40;;;;;;;12.83;62.86;97406.13;10402424;28;20048;-69
2023/10/23 18:29:57;;;;;;;10.00;3.03;;;;;;;12.81;62.92;97399.72;10390615;28;20049;-71
2023/10/23 18:35:19;;;;;;;10.88;3.45;;;;;;;12.79;63.19;97394.72;10390136;28;20069;-70
2023/10/23 18:40:43;;;;;;;10.05;3.05;;;;;;;12.75;63.40;97380.53;10390019;28;20444;-71
2023/10/23 18:46:04;;;;;;;;;;;;;;;12.72;63.33;97370.53;10418303;28;20041;-71
2023/10/23 18:51:28;;;;;;;12.00;3.78;;;;;;;12.66;63.36;97378.63;10404559;28;20011;-71
2023/10/23 18:56:49;;;;;;;8.48;3.50;;;;;;;12.66;63.57;97381.44;10403440;28;20048;-71
2023/10/23 19:02:10;;;;;;;8.20;3.03;;;;;;;12.66;63.47;97370.22;10401766;28;20060;-71
2023/10/23 19:07:31;;;;;;;7.90;3.08;;;;;;;12.70;63.54;97378.84;10387137;28;20432;-70
2023/10/23 19:12:52;;;;;;;9.18;3.17;;;;;;;12.67;63.75;97374.47;10388274;28;20072;-70
2023/10/23 19:18:13;;;;;;;5.43;2.90;;;;;;;12.70;63.69;97345.22;10388609;28;20041;-70
2023/10/23 19:23:34;;;;;;;8.80;3.20;;;;;;;12.71;63.51;97343.88;10401997;28;20069;-71
2023/10/23 19:28:54;;;;;;;7.90;2.63;;;;;;;12.65;63.60;97348.47;10387971;28;20048;-71
2023/10/23 19:34:15;;;;;;;9.45;3.45;;;;;;;12.60;63.68;97341.91;10401331;28;20511;-71
2023/10/23 19:39:37;;;;;;;9.18;2.72;;;;;;;12.50;63.87;97336.50;10401874;28;20037;-74
2023/10/23 19:45:00;;;;;;;9.52;3.22;;;;;;;12.44;64.22;97341.75;11471115;22;20136;-80
2023/10/23 19:50:22;;;;;;;8.55;3.70;;;;;;;12.49;64.06;97337.09;11345006;23;20056;-81
2023/10/23 19:55:43;;;;;;;8.88;3.97;;;;;;;12.52;63.87;97331.00;10446781;28;20123;-79
2023/10/23 20:01:08;;;;;;;9.30;3.45;;;;;;;12.59;63.98;97318.78;10472983;28;20053;-78
2023/10/23 20:06:30;;;;;;;10.73;4.00;;;;;;;12.58;63.71;97317.31;10444093;28;20041;-80
2023/10/23 20:11:51;;;;;;;8.60;3.55;;;;;;;12.56;63.93;97308.09;10397962;28;20046;-72
2023/10/23 20:17:12;;;;;;;9.50;3.72;;;;;;;12.58;63.76;97308.19;10406530;28;20120;-73
2023/10/23 20:22:33;;;;;;;10.50;3.90;;;;;;;12.50;63.82;97299.38;10387655;28;20069;-73
2023/10/23 20:27:54;;;;;;;8.75;4.25;;;;;;;12.37;65.28;97302.88;10400913;28;20119;-73
2023/10/23 20:33:15;;;;;;;15.48;4.28;;;;;;;12.29;65.13;97315.09;10375222;28;20037;-73
2023/10/23 20:38:37;;;;;;;11.68;3.92;;;;;;;12.28;64.78;97308.03;10407005;28;20041;-74
2023/10/23 20:43:58;;;;;;;10.57;4.13;;;;;;;12.26;65.79;97305.13;10408816;28;20079;-72
2023/10/23 20:49:19;;;;;;;9.70;4.10;;;;;;;12.25;64.48;97298.06;10401061;28;20076;-73
2023/10/23 20:54:41;;;;;;;10.63;3.80;;;;;;;12.13;64.53;97286.22;10387168;28;20077;-74
2023/10/23 21:00:08;;;;;;;13.05;4.20;;;;;;;12.01;65.22;97313.53;10398656;28;20120;-73
2023/10/23 21:05:33;;;;;;;11.07;4.30;;;;;;;11.93;65.91;97301.91;10407340;28;20045;-73
2023/10/23 21:10:54;;;;;;;10.65;3.88;;;;;;;11.85;65.99;97301.44;10394093;28;20042;-73
2023/10/23 21:16:15;;;;;;;11.95;3.75;;;;;;;11.83;66.15;97290.88;10393617;28;20069;-73
2023/10/23 21:21:37;;;;;;;11.32;4.20;;;;;;;11.92;66.50;97283.69;10407848;28;20048;-73
2023/10/23 21:26:58;;;;;;;7.97;3.97;;;;;;;12.03;66.19;97288.47;10408348;28;20491;-72
2023/10/23 21:32:19;;;;;;;13.63;4.45;;;;;;;12.19;65.87;97283.75;10380215;28;20483;-72
2023/10/23 21:37:40;;;;;;;12.38;5.60;;;;;;;12.26;66.13;97293.94;10407021;28;20092;-73
2023/10/23 21:43:00;;;;;;;10.43;5.28;;;;;;;12.41;66.08;97283.50;10392813;28;20482;-73
2023/10/23 21:48:21;;;;;;;9.88;4.45;;;;;;;12.40;65.83;97268.03;10392341;28;20061;-73
2023/10/23 21:53:42;;;;;;;11.07;4.03;;;;;;;12.32;65.72;97257.88;10391898;28;20060;-73
2023/10/23 21:59:04;;;;;;;8.73;3.80;;;;;;;12.32;65.59;97257.16;10405899;28;20054;-73
2023/10/23 22:04:33;;;;;;;9.57;4.65;;;;;;;12.19;65.31;97252.25;10394021;28;20041;-73
2023/10/23 22:09:55;;;;;;;9.57;3.92;;;;;;;12.17;66.15;97241.69;10401915;28;20042;-73
2023/10/23 22:15:16;;;;;;;11.90;3.97;;;;;;;12.20;66.15;97234.84;10404102;28;20050;-73
2023/10/23 22:20:37;;;;;;;12.40;4.07;;;;;;;12.20;65.92;97239.72;10405125;28;20103;-72
2023/10/23 22:25:58;;;;;;;10.82;4.15;;;;;;;12.25;65.61;97236.50;10404409;28;20068;-72
2023/10/23 22:31:20;;;;;;;8.85;4.30;;;;;;;12.24;65.68;97251.84;10390993;28;20099;-71
2023/10/23 22:36:40;;;;;;;9.98;4.18;;;;;;;12.29;65.72;97242.31;10390702;28;20368;-73
2023/10/23 22:42:02;;;;;;;10.25;4.45;;;;;;;12.24;65.53;97239.91;10390363;28;20073;-73
2023/10/23 22:47:23;;;;;;;11.75;5.05;;;;;;;12.20;65.58;97239.72;10390168;28;20065;-73
2023/10/23 22:52:45;;;;;;;11.35;4.47;;;;;;;12.18;65.78;97220.03;10403977;28;20465;-73
2023/10/23 22:58:06;;;;;;;13.18;4.50;;;;;;;12.20;66.38;97234.13;10389385;28;20399;-74
2023/10/23 23:03:27;;;;;;;11.40;4.53;;;;;;;12.13;65.77;97221.88;10389531;28;20065;-73
2023/10/23 23:08:50;;;;;;;12.65;5.10;;;;;;;12.02;65.80;97212.22;10403083;28;20044;-73
2023/10/23 23:14:11;;;;;;;10.45;4.90;;;;;;;11.83;65.89;97220.97;10389169;28;20069;-72
2023/10/23 23:19:32;;;;;;;11.15;5.45;;;;;;;11.79;65.85;97225.59;10402906;28;20064;-72
2023/10/23 23:24:53;;;;;;;11.30;5.35;;;;;;;11.73;66.61;97218.34;10387564;28;20065;-71
2023/10/23 23:30:15;;;;;;;10.93;5.05;;;;;;;11.71;66.15;97221.03;10388733;28;20041;-72
2023/10/23 23:35:36;;;;;;;12.63;5.70;;;;;;;11.67;67.20;97217.25;10402199;28;20053;-72
2023/10/23 23:40:57;;;;;;;15.27;5.53;;;;;;;11.65;66.77;97209.50;10380886;28;20120;-73
2023/10/23 23:46:18;;;;;;;10.30;4.78;;;;;;;11.61;67.23;97212.09;10401547;28;20415;-72
2023/10/23 23:51:39;;;;;;;9.40;5.28;;;;;;;11.57;67.43;97199.94;10401263;28;20125;-72
2023/10/23 23:57:00;;;;;;;12.85;5.18;;;;;;;11.46;67.09;97201.44;10377305;28;20046;-72
